Time;durP1;ratioP1;P1;durP2;ratioP2;P2;SDS_P1;SDS_P2;PMS_P1;PMS_P2;Temp;Humidity;BMP_temperature;BMP_pressure;BME280_temperature;BME280_humidity;BME280_pressure;Samples;Min_cycle;Max_cycle;Signal;HPM_P1;HPM_P2
2023/04/21 00:02:14;;;;;;;0.00;0.00;;;;;;;11.36;59.16;101676.13;5000895;28;20074;-81
2023/04/21 00:04:40;;;;;;;0.10;0.10;;;;;;;11.34;60.75;101676.16;5000275;28;20022;-80
2023/04/21 00:07:07;;;;;;;0.10;0.10;;;;;;;11.31;59.38;101679.72;4995238;28;20038;-81
2023/04/21 00:09:34;;;;;;;0.40;0.40;;;;;;;11.28;60.53;101679.75;4990907;28;20098;-81
2023/04/21 00:12:00;;;;;;;0.10;0.10;;;;;;;11.26;60.80;101686.81;5000038;28;20030;-80
2023/04/21 00:14:26;;;;;;;0.10;0.10;;;;;;;11.22;61.42;101693.06;4991443;28;20030;-81
2023/04/21 00:16:52;;;;;;;0.10;0.10;;;;;;;11.19;61.33;101694.84;5000626;28;20042;-81
2023/04/21 00:19:19;;;;;;;0.10;0.10;;;;;;;11.16;61.00;101693.13;5000791;28;20023;-81
2023/04/21 00:21:45;;;;;;;0.10;0.10;;;;;;;11.15;61.03;101688.69;5002646;28;20042;-81
2023/04/21 00:24:11;;;;;;;0.10;0.10;;;;;;;11.14;60.30;101686.94;5000244;28;20098;-79
2023/04/21 00:26:38;;;;;;;0.10;0.10;;;;;;;11.13;60.73;101695.81;4999369;28;20034;-81
2023/04/21 00:29:04;;;;;;;0.30;0.30;;;;;;;11.09;61.57;101678.13;4999070;28;20042;-80
2023/04/21 00:31:30;;;;;;;0.10;0.10;;;;;;;11.08;61.96;101682.56;4994973;28;20030;-81
2023/04/21 00:33:56;;;;;;;0.50;0.50;;;;;;;11.08;62.77;101679.03;4999774;28;20052;-82
2023/04/21 00:36:23;;;;;;;0.10;0.10;;;;;;;11.07;62.39;101675.50;5000902;28;20093;-81
2023/04/21 00:38:49;;;;;;;0.10;0.10;;;;;;;11.08;62.64;101661.34;5000352;28;20041;-81
2023/04/21 00:41:16;;;;;;;0.20;0.20;;;;;;;11.10;61.93;101653.38;4997835;28;20109;-81
2023/04/21 00:44:04;;;;;;;3.53;2.13;;;;;;;11.19;61.79;101648.00;4995299;28;20038;-81
2023/04/21 00:46:30;;;;;;;0.10;0.10;;;;;;;11.12;62.09;101641.00;4997103;28;20138;-81
2023/04/21 00:48:57;;;;;;;0.10;0.10;;;;;;;11.13;61.69;101640.97;4999418;28;20057;-81
2023/04/21 00:51:25;;;;;;;0.30;0.30;;;;;;;11.15;62.74;101640.94;4993284;28;20405;-82
2023/04/21 00:53:51;;;;;;;0.55;0.55;;;;;;;11.14;62.16;101629.47;5000666;28;20041;-80
2023/04/21 00:56:17;;;;;;;0.10;0.10;;;;;;;11.14;62.14;101634.78;4995405;28;20038;-81
2023/04/21 00:58:45;;;;;;;0.10;0.10;;;;;;;11.15;61.49;101631.25;4999460;28;20041;-81
2023/04/21 01:01:13;;;;;;;0.20;0.20;;;;;;;11.16;63.01;101640.06;5002603;28;20485;-79
2023/04/21 01:03:39;;;;;;;0.10;0.10;;;;;;;11.15;62.77;101633.00;4996463;28;20027;-81
2023/04/21 01:06:06;;;;;;;0.17;0.17;;;;;;;11.16;61.93;101626.81;4995943;28;20062;-81
2023/04/21 01:08:33;;;;;;;0.10;0.10;;;;;;;11.15;62.65;101627.69;4987092;28;20062;-81
2023/04/21 01:10:59;;;;;;;0.55;0.55;;;;;;;11.16;62.81;101626.81;4996559;28;20513;-80
2023/04/21 01:13:25;;;;;;;0.10;0.10;;;;;;;11.13;63.31;101629.50;4998292;28;20437;-78
2023/04/21 01:15:51;;;;;;;0.10;0.10;;;;;;;11.12;63.12;101631.25;4996996;28;20053;-81
2023/04/21 01:18:18;;;;;;;0.10;0.10;;;;;;;11.12;62.53;101633.91;4998253;28;20034;-80
2023/04/21 01:20:44;;;;;;;0.20;0.20;;;;;;;11.11;63.00;101640.09;5014773;28;20037;-80
2023/04/21 01:23:11;;;;;;;0.13;0.13;;;;;;;11.10;63.62;101634.81;4999052;28;20033;-81
2023/04/21 01:25:37;;;;;;;0.20;0.20;;;;;;;11.08;64.79;101641.91;4993312;28;20646;-81
2023/04/21 01:28:03;;;;;;;0.38;0.38;;;;;;;11.08;64.55;101639.25;4999273;28;20065;-82
2023/04/21 01:30:29;;;;;;;0.20;0.20;;;;;;;11.08;63.22;101623.34;4998176;28;20034;-80
2023/04/21 01:32:57;;;;;;;0.10;0.10;;;;;;;11.09;64.50;101625.09;4994891;28;20699;-79
2023/04/21 01:35:23;;;;;;;0.10;0.10;;;;;;;11.07;64.59;101626.91;4993067;28;20040;-79
2023/04/21 01:37:49;;;;;;;0.10;0.10;;;;;;;11.06;65.36;101625.13;4991046;28;20077;-79
2023/04/21 01:40:15;;;;;;;0.10;0.10;;;;;;;11.06;64.47;101625.13;4992365;28;20030;-79
2023/04/21 01:42:42;;;;;;;0.43;0.43;;;;;;;11.06;65.88;101625.13;4992164;28;20500;-80
2023/04/21 01:45:09;;;;;;;0.10;0.10;;;;;;;11.06;64.08;101614.53;4988672;28;20062;-80
2023/04/21 01:47:35;;;;;;;2.67;1.38;;;;;;;11.06;66.05;101617.19;4990581;28;20088;-80
2023/04/21 01:50:02;;;;;;;0.10;0.10;;;;;;;11.06;64.43;101604.78;4984217;28;20045;-80
2023/04/21 01:52:28;;;;;;;4.30;0.55;;;;;;;11.06;65.33;101602.13;4984793;28;20034;-79
2023/04/21 01:54:55;;;;;;;6.45;0.80;;;;;;;11.09;66.00;101598.56;4984876;28;20495;-79
2023/04/21 01:57:21;;;;;;;0.68;0.45;;;;;;;11.08;66.61;101596.81;4992640;28;20065;-80
2023/04/21 01:59:48;;;;;;;0.50;0.50;;;;;;;11.09;65.55;101593.28;4997832;28;20409;-80
2023/04/21 02:02:14;;;;;;;1.98;0.50;;;;;;;11.11;66.41;101591.50;4996307;28;20045;-79
2023/04/21 02:04:40;;;;;;;0.10;0.10;;;;;;;11.12;65.90;101583.50;4989434;28;20039;-80
2023/04/21 02:07:06;;;;;;;0.10;0.10;;;;;;;11.14;64.85;101591.44;4990816;28;20034;-80
2023/04/21 02:09:32;;;;;;;0.13;0.13;;;;;;;11.17;64.85;101583.47;4993493;28;20165;-80
2023/04/21 02:11:59;;;;;;;0.10;0.10;;;;;;;11.15;66.74;101578.19;4996492;28;20517;-81
2023/04/21 02:14:26;;;;;;;0.10;0.10;;;;;;;11.17;66.19;101583.47;4993296;28;20022;-79
2023/04/21 02:16:52;;;;;;;0.05;0.05;;;;;;;11.14;66.09;101583.50;4997172;28;20035;-80
2023/04/21 02:19:18;;;;;;;0.10;0.10;;;;;;;11.22;65.17;101583.44;4991727;28;20042;-79
2023/04/21 02:21:44;;;;;;;0.10;0.10;;;;;;;11.24;64.03;101590.47;4988293;28;20068;-79
2023/04/21 02:24:10;;;;;;;0.10;0.10;;;;;;;11.27;64.39;101586.91;4984144;28;20031;-80
2023/04/21 02:26:36;;;;;;;0.43;0.43;;;;;;;11.27;64.85;101584.25;4984348;28;20058;-80
2023/04/21 02:29:02;;;;;;;0.10;0.10;;;;;;;11.27;64.76;101586.91;4992256;28;20054;-81
2023/04/21 02:31:29;;;;;;;0.38;0.38;;;;;;;11.24;65.35;101584.28;4997175;28;20048;-80
2023/04/21 02:33:55;;;;;;;0.70;0.70;;;;;;;11.20;65.50;101578.13;4995559;28;20034;-79
2023/04/21 02:36:21;;;;;;;0.35;0.35;;;;;;;11.19;64.55;101570.19;4988958;28;20063;-80
2023/04/21 02:38:48;;;;;;;0.10;0.10;;;;;;;11.19;63.91;101564.88;4992561;28;20038;-80
2023/04/21 02:41:14;;;;;;;0.10;0.10;;;;;;;11.20;63.85;101554.25;4991894;28;20034;-80
2023/04/21 02:43:40;;;;;;;0.00;0.00;;;;;;;11.22;64.22;101551.59;5000744;28;20053;-81
2023/04/21 02:46:07;;;;;;;0.10;0.10;;;;;;;11.20;65.25;101559.56;5000051;28;20042;-80
2023/04/21 02:48:34;;;;;;;0.10;0.10;;;;;;;11.17;65.36;101565.78;4983070;28;20094;-79
2023/04/21 02:51:00;;;;;;;0.05;0.05;;;;;;;11.13;65.84;101569.38;4991388;28;20034;-80
2023/04/21 02:53:26;;;;;;;0.10;0.10;;;;;;;11.13;64.99;101558.75;5000068;28;20113;-80
2023/04/21 02:55:52;;;;;;;4.82;0.57;;;;;;;11.15;64.43;101549.00;4995742;28;20136;-80
2023/04/21 02:58:18;;;;;;;0.10;0.10;;;;;;;11.15;65.11;101553.44;4994993;28;20060;-80
2023/04/21 03:00:44;;;;;;;0.20;0.20;;;;;;;11.16;64.85;101547.22;4994262;28;20026;-81
2023/04/21 03:03:10;;;;;;;0.20;0.20;;;;;;;11.17;64.48;101549.00;4998441;28;20030;-79
2023/04/21 03:05:36;;;;;;;0.10;0.10;;;;;;;11.17;64.63;101555.16;4995458;28;20509;-81
2023/04/21 03:08:03;;;;;;;0.15;0.15;;;;;;;11.16;65.50;101563.16;4999985;28;20413;-81
2023/04/21 03:10:29;;;;;;;0.10;0.10;;;;;;;11.15;65.43;101564.03;4999975;28;20046;-80
2023/04/21 03:12:55;;;;;;;0.10;0.10;;;;;;;11.15;66.28;101566.69;4999203;28;20046;-80
2023/04/21 03:15:21;;;;;;;0.10;0.10;;;;;;;11.12;66.08;101566.72;4997589;28;20070;-78
2023/04/21 03:17:47;;;;;;;0.65;0.65;;;;;;;11.12;65.45;101561.44;4997131;28;20215;-79
2023/04/21 03:20:14;;;;;;;0.10;0.10;;;;;;;11.14;64.74;101552.56;4995725;28;20045;-79
2023/04/21 03:22:41;;;;;;;0.10;0.10;;;;;;;11.16;64.87;101547.22;5000018;28;20026;-81
2023/04/21 03:25:07;;;;;;;0.10;0.10;;;;;;;11.15;65.70;101561.38;4998883;28;20105;-80
2023/04/21 03:27:34;;;;;;;0.05;0.05;;;;;;;11.13;65.66;101552.59;4998880;28;20104;-81
2023/04/21 03:30:01;;;;;;;4.97;2.08;;;;;;;11.11;65.13;101541.09;4999155;28;20045;-81
2023/04/21 03:32:28;;;;;;;0.10;0.10;;;;;;;11.12;64.93;101534.91;4997931;28;20049;-80
2023/04/21 03:34:54;;;;;;;0.10;0.10;;;;;;;11.11;64.84;101528.72;4999147;28;20169;-81
2023/04/21 03:37:20;;;;;;;0.10;0.10;;;;;;;11.14;65.16;101527.78;4999389;28;20038;-80
2023/04/21 03:39:46;;;;;;;0.10;0.10;;;;;;;11.14;65.40;101535.75;4999766;28;20116;-80
2023/04/21 03:42:12;;;;;;;0.25;0.25;;;;;;;11.12;65.09;101522.50;4994393;28;20400;-81
2023/04/21 03:44:38;;;;;;;0.40;0.40;;;;;;;11.12;65.74;101524.31;5001723;28;20033;-81
2023/04/21 03:47:05;;;;;;;0.03;0.03;;;;;;;11.11;65.78;101517.22;5001044;28;20049;-80
2023/04/21 03:49:33;;;;;;;0.10;0.10;;;;;;;11.10;65.94;101515.47;5001479;28;20130;-80
2023/04/21 03:51:59;;;;;;;0.10;0.10;;;;;;;11.07;65.77;101512.88;4991000;28;20037;-81
2023/04/21 03:54:25;;;;;;;0.85;0.60;;;;;;;11.06;65.62;101503.16;4997416;28;20231;-80
2023/04/21 03:56:51;;;;;;;0.10;0.10;;;;;;;11.06;65.39;101497.84;4997446;28;20107;-81
2023/04/21 03:59:17;;;;;;;0.10;0.10;;;;;;;11.06;65.67;101497.84;4998538;28;20061;-82
2023/04/21 04:01:43;;;;;;;1.38;1.27;;;;;;;11.07;65.14;101499.63;5002825;28;20038;-79
2023/04/21 04:04:09;;;;;;;0.10;0.10;;;;;;;11.03;65.81;101489.91;4991099;28;20029;-82
2023/04/21 04:06:36;;;;;;;0.10;0.10;;;;;;;10.99;66.88;101495.25;4998026;28;20061;-81
2023/04/21 04:09:03;;;;;;;0.05;0.05;;;;;;;10.99;66.30;101502.31;4993942;28;20262;-81
2023/04/21 04:11:30;;;;;;;0.10;0.10;;;;;;;10.97;67.41;101504.13;5002018;28;20038;-80
2023/04/21 04:13:56;;;;;;;0.50;0.50;;;;;;;10.95;67.05;101506.81;5001791;28;20038;-79
2023/04/21 04:16:22;;;;;;;0.80;0.80;;;;;;;10.92;67.27;101506.81;5009451;28;20122;-82
2023/04/21 04:18:49;;;;;;;2.83;0.47;;;;;;;10.94;68.11;101499.75;5006481;28;20026;-81
2023/04/21 04:21:16;;;;;;;1.42;1.42;;;;;;;10.97;66.08;101493.53;5007091;28;20022;-82
2023/04/21 04:23:43;;;;;;;0.80;0.73;;;;;;;10.92;66.88;101496.22;5003624;28;20105;-82
2023/04/21 04:26:10;;;;;;;0.10;0.10;;;;;;;10.99;67.39;101503.22;4997518;28;20102;-82
2023/04/21 04:28:36;;;;;;;0.10;0.10;;;;;;;10.99;67.41;101505.88;5006439;28;20041;-82
2023/04/21 04:31:03;;;;;;;0.10;0.10;;;;;;;11.00;67.72;101499.69;5005985;28;20026;-80
2023/04/21 04:33:29;;;;;;;0.10;0.10;;;;;;;11.01;66.88;101500.53;5004208;28;20113;-82
2023/04/21 04:35:57;;;;;;;0.10;0.10;;;;;;;11.01;67.58;101503.19;5002564;28;20528;-79
2023/04/21 04:38:23;;;;;;;2.08;0.68;;;;;;;11.03;66.96;101503.16;5002218;28;20045;-82
2023/04/21 04:40:57;;;;;;;0.10;0.10;;;;;;;11.07;66.98;101510.22;5004276;28;20054;-79
2023/04/21 04:43:24;;;;;;;0.20;0.20;;;;;;;11.01;67.35;101495.25;5003315;28;20049;-82
2023/04/21 04:45:50;;;;;;;0.20;0.20;;;;;;;11.02;67.36;101493.50;5003174;28;20030;-81
2023/04/21 04:48:16;;;;;;;0.43;0.43;;;;;;;11.02;66.75;101507.59;5000609;28;20061;-81
2023/04/21 04:50:43;;;;;;;0.10;0.10;;;;;;;11.00;67.22;101504.97;5004243;28;20030;-80
2023/04/21 04:53:09;;;;;;;1.73;1.65;;;;;;;10.99;67.21;101513.81;5000923;28;20026;-81
2023/04/21 04:55:35;;;;;;;0.30;0.30;;;;;;;10.96;67.84;101524.44;5004741;28;20098;-81
2023/04/21 04:58:01;;;;;;;0.10;0.10;;;;;;;10.94;68.12;101517.41;5001191;28;20213;-80
2023/04/21 05:00:27;;;;;;;0.55;0.55;;;;;;;10.96;67.73;101519.16;4998466;28;20552;-82
2023/04/21 05:02:54;;;;;;;0.10;0.10;;;;;;;10.97;68.65;101515.59;5001539;28;20034;-82
2023/04/21 05:05:21;;;;;;;0.28;0.28;;;;;;;10.99;67.81;101519.13;4999741;28;20587;-82
2023/04/21 05:07:47;;;;;;;0.17;0.17;;;;;;;11.01;68.25;101511.16;5003114;28;20094;-82
2023/04/21 05:10:13;;;;;;;0.57;0.57;;;;;;;11.04;68.30;101511.13;5004590;28;20039;-80
2023/04/21 05:12:39;;;;;;;0.30;0.30;;;;;;;11.09;68.03;101508.41;5001378;28;20387;-81
2023/04/21 05:15:06;;;;;;;0.20;0.20;;;;;;;11.13;67.66;101512.81;5002686;28;20060;-80
2023/04/21 05:17:33;;;;;;;0.68;0.68;;;;;;;11.16;68.15;101512.75;5001551;28;20034;-82
2023/04/21 05:19:59;;;;;;;0.10;0.10;;;;;;;11.19;67.89;101503.88;4999272;28;20121;-82
2023/04/21 05:22:25;;;;;;;0.43;0.35;;;;;;;11.20;67.83;101511.81;4998277;28;20094;-81
2023/04/21 05:24:52;;;;;;;0.10;0.10;;;;;;;11.20;68.53;101511.81;5000966;28;20109;-81
2023/04/21 05:27:18;;;;;;;5.32;0.63;;;;;;;11.24;68.42;101517.97;4993467;28;20498;-81
2023/04/21 05:29:44;;;;;;;1.17;0.95;;;;;;;11.26;68.74;101517.03;4996512;28;20493;-80
2023/04/21 05:32:11;;;;;;;1.45;0.82;;;;;;;11.28;69.28;101528.53;4995918;28;20042;-79
2023/04/21 05:34:37;;;;;;;0.10;0.10;;;;;;;11.31;68.32;101528.50;4998613;28;20024;-81
2023/04/21 05:37:03;;;;;;;0.35;0.35;;;;;;;11.35;68.28;101525.78;4998320;28;20053;-80
2023/04/21 05:39:30;;;;;;;2.08;0.73;;;;;;;11.36;68.67;101522.25;4997871;28;20034;-80
2023/04/21 05:41:56;;;;;;;0.10;0.10;;;;;;;11.38;68.56;101531.09;4991283;28;20056;-81
2023/04/21 05:44:24;;;;;;;0.10;0.10;;;;;;;11.38;68.73;101531.09;4992885;28;20027;-80
2023/04/21 05:46:50;;;;;;;0.20;0.20;;;;;;;11.40;68.50;101539.88;4997205;28;20436;-81
2023/04/21 05:49:16;;;;;;;0.20;0.20;;;;;;;11.42;68.33;101527.47;4991180;28;20393;-80
2023/04/21 05:51:42;;;;;;;0.73;0.73;;;;;;;11.45;67.69;101535.38;4993909;28;20109;-80
2023/04/21 05:54:08;;;;;;;0.32;0.32;;;;;;;11.49;68.09;101539.78;4992169;28;20026;-83
2023/04/21 05:56:34;;;;;;;0.30;0.30;;;;;;;11.53;68.55;101543.28;5005017;28;20065;-80
2023/04/21 05:59:00;;;;;;;0.10;0.10;;;;;;;11.56;68.22;101545.88;4994844;28;20030;-81
2023/04/21 06:01:26;;;;;;;0.20;0.20;;;;;;;11.60;68.22;101548.47;5002058;28;20447;-81
2023/04/21 06:03:52;;;;;;;0.10;0.10;;;;;;;11.68;68.26;101544.84;5003333;28;20027;-81
2023/04/21 06:06:18;;;;;;;0.45;0.43;;;;;;;11.72;68.36;101547.44;4999257;28;20022;-83
2023/04/21 06:08:45;;;;;;;0.20;0.20;;;;;;;11.77;67.77;101544.72;5001178;28;20102;-81
2023/04/21 06:11:11;;;;;;;0.20;0.20;;;;;;;11.83;68.10;101534.00;4990982;28;20037;-83
2023/04/21 06:13:37;;;;;;;0.28;0.28;;;;;;;11.88;68.26;101532.16;4993846;28;20034;-81
2023/04/21 06:16:03;;;;;;;0.50;0.50;;;;;;;11.92;68.27;101540.97;4993171;28;20456;-81
2023/04/21 06:18:29;;;;;;;0.10;0.10;;;;;;;11.95;67.97;101538.25;4992846;28;20117;-81
2023/04/21 06:20:55;;;;;;;0.80;0.80;;;;;;;11.98;68.13;101540.91;5000403;28;20470;-81
2023/04/21 06:23:21;;;;;;;0.10;0.10;;;;;;;12.01;68.40;101547.94;5000321;28;20436;-81
2023/04/21 06:25:59;;;;;;;0.35;0.35;;;;;;;12.08;68.40;101541.66;5000647;28;20421;-81
2023/04/21 06:28:25;;;;;;;0.30;0.30;;;;;;;11.97;68.44;101547.13;4998166;28;20078;-82
2023/04/21 06:30:51;;;;;;;0.68;0.68;;;;;;;11.95;68.96;101546.22;4995326;28;20031;-82
2023/04/21 06:33:17;;;;;;;17.70;2.75;;;;;;;12.02;68.20;101539.09;5004153;28;20042;-82
2023/04/21 06:35:43;;;;;;;1.65;1.55;;;;;;;12.08;68.28;101531.03;5003784;28;20035;-82
2023/04/21 06:38:09;;;;;;;0.10;0.10;;;;;;;12.17;68.34;101533.53;5004334;28;20039;-82
2023/04/21 06:40:35;;;;;;;0.10;0.10;;;;;;;12.25;68.38;101544.03;5004948;28;20050;-83
2023/04/21 06:43:01;;;;;;;0.10;0.10;;;;;;;12.34;67.82;101530.63;5003359;28;20106;-82
2023/04/21 06:45:27;;;;;;;5.68;1.42;;;;;;;12.41;68.23;101536.69;4998125;28;20062;-82
2023/04/21 06:47:53;;;;;;;0.75;0.75;;;;;;;12.48;68.26;101538.34;4989018;28;20065;-83
2023/04/21 06:50:19;;;;;;;0.30;0.30;;;;;;;12.54;68.20;101532.94;4999274;28;20041;-83
2023/04/21 06:52:45;;;;;;;0.20;0.20;;;;;;;12.59;68.35;101531.06;4995595;28;20031;-82
2023/04/21 06:55:11;;;;;;;0.20;0.20;;;;;;;12.65;68.72;101523.88;5000612;28;20486;-82
2023/04/21 06:57:38;;;;;;;0.32;0.32;;;;;;;12.69;68.31;101533.59;4996002;28;20038;-83
2023/04/21 07:00:04;;;;;;;0.40;0.40;;;;;;;12.69;69.06;101526.47;5003159;28;20028;-83
2023/04/21 07:02:30;;;;;;;0.63;0.63;;;;;;;12.77;68.84;101532.53;4993781;28;20374;-83
2023/04/21 07:04:56;;;;;;;0.10;0.10;;;;;;;12.79;68.51;101525.41;4992139;28;20054;-83
2023/04/21 07:07:23;;;;;;;0.40;0.40;;;;;;;12.82;68.21;101526.25;4995288;28;20475;-83
2023/04/21 07:09:54;;;;;;;1.27;1.27;;;;;;;12.86;68.43;101527.94;4992983;28;20026;-83
2023/04/21 07:12:21;;;;;;;0.47;0.47;;;;;;;12.76;68.22;101527.22;4996143;28;20050;-84
2023/04/21 07:14:47;;;;;;;0.55;0.55;;;;;;;12.73;67.56;101525.50;4999067;28;20045;-84
2023/04/21 07:17:15;;;;;;;1.58;1.42;;;;;;;12.75;67.93;101531.69;5010364;28;20022;-83
2023/04/21 07:19:41;;;;;;;1.65;1.02;;;;;;;12.80;68.02;101531.59;5012779;28;20041;-85
2023/04/21 07:22:07;;;;;;;4.68;1.20;;;;;;;12.79;68.59;101516.56;5006237;28;20049;-84
2023/04/21 07:24:34;;;;;;;1.38;1.27;;;;;;;12.78;68.16;101521.00;5011097;28;20056;-84
2023/04/21 07:27:01;;;;;;;0.68;0.68;;;;;;;12.85;67.37;101524.41;5004337;28;20048;-84
2023/04/21 07:29:27;;;;;;;1.70;0.82;;;;;;;12.87;67.37;101530.59;5005953;28;20044;-84
2023/04/21 07:31:55;;;;;;;0.10;0.10;;;;;;;12.86;67.52;101526.19;5008400;28;20461;-84
2023/04/21 07:34:21;;;;;;;0.20;0.20;;;;;;;12.83;67.60;101528.88;5007028;28;20502;-84
2023/04/21 07:36:47;;;;;;;0.30;0.30;;;;;;;12.81;66.97;101521.84;5006557;28;20058;-84
2023/04/21 07:39:13;;;;;;;0.20;0.20;;;;;;;12.84;67.27;101521.78;5006098;28;20214;-84
2023/04/21 07:41:39;;;;;;;1.13;1.08;;;;;;;12.87;67.19;101533.25;4996950;28;20034;-84
2023/04/21 07:44:05;;;;;;;6.95;1.95;;;;;;;12.96;66.77;101529.53;4996213;28;20057;-83
2023/04/21 07:46:31;;;;;;;0.38;0.38;;;;;;;12.95;67.14;101526.00;4994535;28;20034;-84
2023/04/21 07:48:59;;;;;;;0.85;0.85;;;;;;;13.02;66.09;101529.44;4993572;28;20031;-84
2023/04/21 07:51:26;;;;;;;0.43;0.40;;;;;;;13.09;66.29;101531.03;4995566;28;20039;-83
2023/04/21 07:53:52;;;;;;;0.65;0.65;;;;;;;13.18;66.34;101529.97;4992978;28;20023;-84
2023/04/21 07:56:18;;;;;;;0.88;0.88;;;;;;;13.18;66.03;101529.13;4997968;28;20121;-84
2023/04/21 07:58:45;;;;;;;0.73;0.73;;;;;;;13.26;66.03;101528.06;5002825;28;20036;-84
2023/04/21 08:01:11;;;;;;;0.88;0.85;;;;;;;13.27;65.46;101524.50;4999194;28;20038;-85
2023/04/21 08:03:37;;;;;;;1.08;1.08;;;;;;;13.26;65.33;101528.06;5004056;28;20030;-85
2023/04/21 08:06:03;;;;;;;0.10;0.10;;;;;;;13.34;65.06;101535.00;4998157;28;20588;-84
2023/04/21 08:08:30;;;;;;;0.73;0.73;;;;;;;13.48;65.60;101526.75;5027884;23;20034;-78
2023/04/21 08:10:56;;;;;;;1.88;1.65;;;;;;;13.52;65.57;101518.69;5003399;28;20057;-78
2023/04/21 08:13:24;;;;;;;0.40;0.40;;;;;;;13.56;65.67;101523.03;5001758;28;20030;-79
2023/04/21 08:15:52;;;;;;;0.10;0.10;;;;;;;13.69;65.43;101530.75;5002301;28;20061;-79
2023/04/21 08:18:18;;;;;;;1.52;1.35;;;;;;;13.69;65.25;101530.75;5000500;28;20061;-79
2023/04/21 08:20:46;;;;;;;0.65;0.65;;;;;;;13.73;65.45;101529.75;5000902;28;20061;-79
2023/04/21 08:23:13;;;;;;;2.10;1.35;;;;;;;13.83;65.35;101533.09;5001981;28;20040;-79
2023/04/21 08:25:40;;;;;;;1.80;1.05;;;;;;;13.97;65.55;101519.47;5009603;28;20045;-80
2023/04/21 08:28:06;;;;;;;0.17;0.17;;;;;;;14.08;65.54;101518.31;5010242;28;20094;-80
2023/04/21 08:30:32;;;;;;;0.77;0.77;;;;;;;14.06;63.62;101522.78;5010496;28;20512;-79
2023/04/21 08:32:58;;;;;;;0.20;0.20;;;;;;;14.18;64.49;101513.63;5009731;28;20034;-80
2023/04/21 08:35:25;;;;;;;0.50;0.50;;;;;;;14.29;64.65;101512.50;5010777;28;20038;-81
2023/04/21 08:37:51;;;;;;;0.20;0.20;;;;;;;14.45;64.21;101511.19;5009770;28;20030;-79
2023/04/21 08:40:17;;;;;;;0.35;0.35;;;;;;;14.57;64.13;101510.00;5010568;28;20023;-78
2023/04/21 08:42:44;;;;;;;0.30;0.30;;;;;;;14.68;63.65;101517.78;5012431;28;20017;-79
2023/04/21 08:45:10;;;;;;;1.67;1.05;;;;;;;14.76;63.27;101515.75;5008606;28;20384;-80
2023/04/21 08:47:39;;;;;;;0.32;0.25;;;;;;;14.87;63.17;101510.13;5008092;28;20026;-78
2023/04/21 08:50:11;;;;;;;0.60;0.60;;;;;;;14.89;62.74;101510.94;4999692;28;20037;-78
2023/04/21 08:52:37;;;;;;;0.90;0.80;;;;;;;14.99;62.87;101506.22;5007700;28;20030;-80
2023/04/21 08:55:06;;;;;;;1.35;0.95;;;;;;;14.94;61.69;101508.16;5009644;28;20097;-81
2023/04/21 08:57:32;;;;;;;0.22;0.22;;;;;;;14.94;61.73;101511.72;5007516;28;20053;-79
2023/04/21 08:59:58;;;;;;;0.10;0.10;;;;;;;15.05;61.85;101506.06;5006578;28;20034;-78
2023/04/21 09:02:25;;;;;;;0.52;0.52;;;;;;;15.14;62.07;101504.94;5005930;28;20026;-80
2023/04/21 09:04:53;;;;;;;0.60;0.60;;;;;;;15.27;61.65;101500.13;5008091;28;20038;-80
2023/04/21 09:07:40;;;;;;;2.45;1.00;;;;;;;15.44;61.37;101491.59;5004605;28;20023;-80
2023/04/21 09:10:06;;;;;;;0.43;0.43;;;;;;;15.41;61.75;101491.72;5006918;28;20091;-81
2023/04/21 09:12:32;;;;;;;0.10;0.10;;;;;;;15.46;60.73;101485.28;5005753;28;20045;-80
2023/04/21 09:15:04;;;;;;;0.40;0.40;;;;;;;15.60;60.33;101497.34;5006208;28;20050;-83
2023/04/21 09:17:32;;;;;;;0.95;0.95;;;;;;;15.56;60.26;101501.91;5005536;28;20026;-82
2023/04/21 09:20:14;;;;;;;1.02;1.00;;;;;;;15.58;60.05;101499.22;5005304;28;20022;-81
2023/04/21 09:22:40;;;;;;;0.52;0.52;;;;;;;15.41;60.08;101489.91;5006513;28;20015;-81
2023/04/21 09:25:06;;;;;;;0.77;0.77;;;;;;;15.49;60.24;101498.56;5006703;28;20031;-81
2023/04/21 09:27:36;;;;;;;0.20;0.20;;;;;;;15.59;61.24;101496.50;5005044;28;20070;-83
2023/04/21 09:30:06;;;;;;;0.73;0.73;;;;;;;15.65;61.06;101495.41;5004117;28;20030;-82
2023/04/21 09:32:38;;;;;;;0.30;0.30;;;;;;;15.81;60.17;101495.81;5004273;28;20482;-81
2023/04/21 09:35:08;;;;;;;1.98;1.75;;;;;;;15.83;59.66;101494.88;5003077;28;20484;-81
2023/04/21 09:37:35;;;;;;;0.40;0.40;;;;;;;15.91;60.05;101481.25;5004002;28;20034;-83
2023/04/21 09:40:01;;;;;;;0.20;0.20;;;;;;;15.94;59.44;101480.31;5006648;28;20030;-81
2023/04/21 09:42:30;;;;;;;0.75;0.75;;;;;;;15.97;58.75;101475.72;5003781;28;20038;-83
2023/04/21 09:44:56;;;;;;;0.63;0.63;;;;;;;16.04;59.10;101476.41;5006401;28;20122;-81
2023/04/21 09:47:23;;;;;;;0.10;0.10;;;;;;;16.13;58.75;101481.44;5003937;28;20030;-83
2023/04/21 09:49:53;;;;;;;1.05;1.05;;;;;;;16.21;58.91;101481.19;5006250;28;20053;-83
2023/04/21 09:52:20;;;;;;;0.20;0.20;;;;;;;16.32;58.75;101475.47;5006392;28;20571;-82
2023/04/21 09:54:55;;;;;;;1.83;1.73;;;;;;;16.43;58.57;101472.44;5006925;28;20026;-83
2023/04/21 09:57:25;;;;;;;1.52;1.50;;;;;;;16.48;58.10;101479.38;5006113;28;20030;-81
2023/04/21 09:59:59;;;;;;;0.20;0.20;;;;;;;16.52;57.07;101482.81;5008362;28;20009;-82
2023/04/21 10:02:28;;;;;;;0.30;0.30;;;;;;;16.61;57.95;101470.91;5003588;28;20030;-81
2023/04/21 10:04:55;;;;;;;0.35;0.35;;;;;;;16.73;57.58;101465.13;4996965;28;20042;-82
2023/04/21 10:07:21;;;;;;;0.63;0.63;;;;;;;16.86;56.67;101475.41;4990148;28;20038;-83
2023/04/21 10:09:54;;;;;;;0.80;0.80;;;;;;;16.98;55.86;101470.53;4997340;28;20030;-83
2023/04/21 10:12:21;;;;;;;0.52;0.52;;;;;;;16.99;55.45;101476.75;5001179;28;20026;-82
2023/04/21 10:14:55;;;;;;;0.20;0.20;;;;;;;17.11;54.63;101481.63;5004073;28;20114;-82
2023/04/21 10:17:24;;;;;;;0.35;0.35;;;;;;;17.17;55.97;101464.47;4998457;28;20034;-83
2023/04/21 10:19:53;;;;;;;1.17;1.17;;;;;;;17.20;54.61;101460.81;4999750;28;20077;-83
2023/04/21 10:22:29;;;;;;;0.10;0.10;;;;;;;17.27;53.22;101454.28;4998018;28;20026;-84
2023/04/21 10:24:57;;;;;;;0.30;0.30;;;;;;;17.39;54.27;101455.63;4998076;28;20023;-83
2023/04/21 10:27:43;;;;;;;0.65;0.65;;;;;;;17.56;54.62;101457.66;5000740;28;20082;-84
2023/04/21 10:30:25;;;;;;;2.50;0.73;;;;;;;17.66;54.17;101463.47;5009036;28;20030;-83
2023/04/21 10:33:06;;;;;;;0.90;0.90;;;;;;;17.74;54.29;101453.34;5001564;28;20034;-83
2023/04/21 10:36:00;;;;;;;0.10;0.10;;;;;;;17.85;52.38;101442.19;4996155;28;20027;-82
2023/04/21 10:38:43;;;;;;;0.13;0.13;;;;;;;17.92;52.85;101447.22;5007143;28;20054;-83
2023/04/21 10:41:30;;;;;;;0.20;0.20;;;;;;;17.92;51.63;101436.50;4997525;28;20112;-83
2023/04/21 10:44:01;;;;;;;0.73;0.73;;;;;;;17.96;52.25;101431.94;5007784;28;20496;-83
2023/04/21 10:46:36;;;;;;;0.20;0.20;;;;;;;18.09;52.68;101427.81;5002709;28;20037;-83
2023/04/21 10:54:42;;;;;;;0.40;0.40;;;;;;;18.51;54.22;101411.72;5101533;27;20392;-85
2023/04/21 10:57:11;;;;;;;0.90;0.90;;;;;;;18.67;52.79;101407.41;5090821;28;20498;-85
2023/04/21 10:59:38;;;;;;;0.52;0.52;;;;;;;18.83;52.92;101404.91;5092360;28;20028;-85
2023/04/21 11:02:07;;;;;;;0.82;0.60;;;;;;;19.01;53.11;101411.25;5095788;28;20043;-83
2023/04/21 11:04:33;;;;;;;0.25;0.25;;;;;;;19.16;50.97;101398.91;5097021;28;20024;-84
2023/04/21 11:07:21;;;;;;;0.35;0.35;;;;;;;19.48;51.26;101398.34;5097886;28;20020;-85
2023/04/21 11:09:57;;;;;;;0.52;0.52;;;;;;;19.75;50.12;101392.53;5096704;28;20021;-85
2023/04/21 11:12:28;;;;;;;0.32;0.32;;;;;;;20.04;50.71;101391.97;5094745;28;20028;-85
2023/04/21 11:14:54;;;;;;;0.35;0.35;;;;;;;20.18;51.00;101387.69;5095114;28;20029;-84
2023/04/21 11:17:22;;;;;;;0.55;0.55;;;;;;;20.26;49.28;101385.50;5094091;28;20028;-85
2023/04/21 11:19:57;;;;;;;1.63;1.50;;;;;;;20.32;49.87;101378.91;5092945;28;20024;-85
2023/04/21 11:22:25;;;;;;;1.52;0.88;;;;;;;20.33;50.35;101376.13;5092969;28;20382;-85
2023/04/21 11:24:54;;;;;;;0.15;0.15;;;;;;;20.47;48.85;101371.84;5092682;28;20028;-85
2023/04/21 11:27:21;;;;;;;0.28;0.28;;;;;;;20.74;50.28;101365.97;5084847;28;20024;-86
2023/04/21 11:29:48;;;;;;;0.45;0.45;;;;;;;20.91;48.71;101362.31;5092112;28;20099;-86
2023/04/21 11:32:15;;;;;;;0.70;0.70;;;;;;;20.96;48.11;101362.94;5097399;28;20039;-86